TimeCEST,TemperatureF,Dew PointF,Humidity,Sea Level PressureIn,VisibilityMPH,Wind Direction,Wind SpeedMPH,Gust SpeedMPH,PrecipitationIn,Events,Conditions,WindDirDegrees,DateUTC
12:00 AM,46.4,42.8,87,29.95,-9999.0,Variable,2.3,-,N/A,,Clear,0,2013-09-19 22:00:00
12:30 AM,44.6,39.2,81,29.98,-9999.0,Variable,1.2,-,N/A,,Clear,0,2013-09-19 22:30:00
1:00 AM,42.8,41.0,93,29.98,-9999.0,WSW,2.3,-,N/A,,Clear,250,2013-09-19 23:00:00
1:30 AM,44.6,41.0,87,29.98,-9999.0,WSW,2.3,-,N/A,,Clear,240,2013-09-19 23:30:00
2:00 AM,44,41,85,30.00,12,West,6.7,,,,Clear,260,2013-09-20 00:00:00
2:00 AM,44.6,41.0,87,29.98,-9999.0,West,6.9,-,N/A,,Clear,270,2013-09-20 00:00:00
2:30 AM,41.0,39.2,93,29.98,-9999.0,East,2.3,-,N/A,,Clear,100,2013-09-20 00:30:00
3:00 AM,42.8,41.0,93,29.98,-9999.0,Variable,2.3,-,N/A,,Clear,0,2013-09-20 01:00:00
3:30 AM,42.8,41.0,93,29.98,-9999.0,SSW,3.5,-,N/A,,Clear,210,2013-09-20 01:30:00
4:00 AM,42.8,41.0,93,29.95,-9999.0,WSW,2.3,-,N/A,,Clear,240,2013-09-20 02:00:00
4:30 AM,42.8,41.0,93,29.98,-9999.0,West,2.3,-,N/A,,Clear,270,2013-09-20 02:30:00
5:00 AM,44.6,41.0,87,29.98,-9999.0,NW,2.3,-,N/A,,Clear,310,2013-09-20 03:00:00
5:30 AM,42.8,41.0,93,29.98,-9999.0,SW,2.3,-,N/A,,Clear,220,2013-09-20 03:30:00
6:00 AM,42.8,41.0,93,29.98,-9999.0,South,1.2,-,N/A,,Clear,180,2013-09-20 04:00:00
6:30 AM,42.8,41.0,93,29.98,-9999.0,Calm,Calm,-,N/A,,Clear,0,2013-09-20 04:30:00
7:00 AM,42.8,41.0,93,29.98,-9999.0,ENE,3.5,-,N/A,,Clear,70,2013-09-20 05:00:00
7:30 AM,44.6,42.8,93,29.98,6.2,Variable,1.2,-,N/A,,Partly Cloudy,0,2013-09-20 05:30:00
8:00 AM,44.6,42.8,93,29.98,6.2,SW,1.2,-,N/A,,Scattered Clouds,230,2013-09-20 06:00:00
8:30 AM,46.4,42.8,87,29.98,6.2,Calm,Calm,-,N/A,,Partly Cloudy,0,2013-09-20 06:30:00
9:00 AM,46.4,42.8,87,29.98,6.2,Variable,1.2,-,N/A,,Partly Cloudy,0,2013-09-20 07:00:00
9:30 AM,48.2,44.6,87,29.98,6.2,Variable,2.3,-,N/A,,Partly Cloudy,0,2013-09-20 07:30:00
10:00 AM,50.0,44.6,82,29.98,6.2,Variable,1.2,-,N/A,,Partly Cloudy,0,2013-09-20 08:00:00
10:30 AM,50.0,44.6,82,29.98,6.2,Variable,2.3,-,N/A,,Partly Cloudy,0,2013-09-20 08:30:00
11:00 AM,50.0,44.6,82,29.98,6.2,Variable,2.3,-,N/A,,Partly Cloudy,0,2013-09-20 09:00:00
11:30 AM,50.0,46.4,87,29.98,6.2,SSW,3.5,-,N/A,,Mostly Cloudy,200,2013-09-20 09:30:00
11:50 AM,51.8,46.4,82,29.98,6.2,SSW,3.5,-,N/A,Rain,Light Rain,210,2013-09-20 09:50:00
12:00 PM,51.8,46.4,82,29.98,6.2,SSW,3.5,-,N/A,Rain,Light Rain,200,2013-09-20 10:00:00
12:30 PM,51.8,46.4,82,29.98,6.2,SSW,3.5,-,N/A,,Overcast,200,2013-09-20 10:30:00
1:00 PM,53.6,48.2,82,29.98,6.2,Variable,2.3,-,N/A,,Overcast,0,2013-09-20 11:00:00
1:30 PM,53.6,48.2,82,29.98,6.2,Variable,2.3,-,N/A,,Overcast,0,2013-09-20 11:30:00
2:00 PM,54,47,68,29.99,16,Calm,Calm,,,,Partly Cloudy,,2013-09-20 12:00:00
2:00 PM,53.6,46.4,77,29.98,6.2,Calm,Calm,-,N/A,,Overcast,0,2013-09-20 12:00:00
2:24 PM,55.4,46.4,72,29.98,6.2,Variable,2.3,-,N/A,Rain,Light Rain,0,2013-09-20 12:24:00
2:30 PM,55.4,48.2,77,29.98,6.2,SW,3.5,-,N/A,Rain,Light Rain,230,2013-09-20 12:30:00
3:00 PM,55.4,46.4,72,29.98,6.2,Variable,2.3,-,N/A,Rain,Light Rain,0,2013-09-20 13:00:00
3:30 PM,55.4,46.4,72,29.98,6.2,Variable,1.2,-,N/A,Rain,Light Rain,0,2013-09-20 13:30:00
4:00 PM,55.4,48.2,77,29.98,6.2,West,2.3,-,N/A,Rain,Light Rain,280,2013-09-20 14:00:00
4:30 PM,55.4,50.0,82,29.98,3.7,Calm,Calm,-,N/A,Rain,Light Rain,0,2013-09-20 14:30:00
5:00 PM,55.4,50.0,82,29.98,4.3,SSW,3.5,-,N/A,Rain,Light Rain,200,2013-09-20 15:00:00
5:30 PM,55.4,51.8,88,29.98,6.2,WSW,5.8,-,N/A,Rain,Light Rain,240,2013-09-20 15:30:00
6:00 PM,55.4,51.8,88,29.98,6.2,SW,4.6,-,N/A,Rain,Light Rain,230,2013-09-20 16:00:00
6:30 PM,55.4,51.8,88,30.01,6.2,SW,3.5,-,N/A,Rain,Light Rain,220,2013-09-20 16:30:00
7:00 PM,53.6,51.8,94,30.01,6.2,SW,3.5,-,N/A,Rain,Light Rain,230,2013-09-20 17:00:00
7:30 PM,53.6,51.8,94,30.01,6.2,WSW,3.5,-,N/A,,Mostly Cloudy,250,2013-09-20 17:30:00
8:00 PM,52,50,89,30.03,7,WSW,6.7,,,Rain,Light Rain,250,2013-09-20 18:00:00
8:00 PM,51.8,50.0,94,30.01,6.2,WSW,6.9,-,N/A,,Mostly Cloudy,250,2013-09-20 18:00:00
8:30 PM,51.8,50.0,94,30.04,6.2,West,4.6,-,N/A,,Mostly Cloudy,270,2013-09-20 18:30:00
9:00 PM,51.8,50.0,94,30.04,6.2,Variable,1.2,-,N/A,,Mostly Cloudy,0,2013-09-20 19:00:00
9:30 PM,51.8,50.0,94,30.04,6.2,Variable,1.2,-,N/A,,Mostly Cloudy,0,2013-09-20 19:30:00
10:00 PM,51.8,50.0,94,30.04,5.0,WSW,4.6,-,N/A,,Scattered Clouds,240,2013-09-20 20:00:00
10:30 PM,51.8,50.0,94,30.04,4.3,West,4.6,-,N/A,,Scattered Clouds,270,2013-09-20 20:30:00
11:00 PM,51.8,50.0,94,30.04,4.3,West,6.9,-,N/A,,Partly Cloudy,280,2013-09-20 21:00:00
11:08 PM,50.0,48.2,94,30.04,2.2,West,4.6,-,N/A,,Partly Cloudy,270,2013-09-20 21:08:00
11:13 PM,50.0,48.2,94,30.04,0.5,West,4.6,-,N/A,Fog,Patches of Fog,260,2013-09-20 21:13:00
11:30 PM,51.8,50.0,94,30.04,3.1,West,5.8,-,N/A,,Partly Cloudy,280,2013-09-20 21:30:00